Triathlon des Moines - Fourmies 2020

Epreuve sélectionnée:


Triathlon S Full - Résultats Scratch

Filtre:

Partants Général Top 5



Recherche:

N° dossard
Nom
Club
Triathlon S Full - Classement arrivée
Clt Athlète Nat. Club Temps Sexe Cat Swim T1 Bike T2 Run
48 107 CHATELUS Sebastien 01:07:22 M (44e) Master (7e) 00:10:37 (87e) 00:01:23 (117e) 00:33:04 (22e) 00:01:06 (80e) 00:21:14 (63e) Partagez votre performance
73 81 BRZEZINSKI Sasha 01:11:16 M (62e) Cadet (26e) 00:11:15 (97e) 00:01:28 (124e) 00:36:41 (81e) 00:01:24 (127e) 00:20:30 (54e) Partagez votre performance
79 121 ANTONIO Remi 01:11:46 M (67e) Senior (20e) 00:11:58 (118e) 00:01:22 (114e) 00:35:32 (63e) 00:01:04 (72e) 00:21:53 (74e) Partagez votre performance
100 98 BRZEZINSKI Vincent 01:15:44 M (81e) Master (15e) 00:11:55 (116e) 00:01:58 (149e) 00:39:09 (111e) 00:01:34 (145e) 00:21:10 (61e) Partagez votre performance
106 105 CANNY Jérôme 01:17:00 M (84e) Master (16e) 00:11:55 (115e) 00:02:14 (168e) 00:37:37 (93e) 00:01:33 (143e) 00:23:44 (115e) Partagez votre performance
119 116 PICHENOT Guillaume 01:18:57 M (90e) Senior (26e) 00:12:11 (126e) 00:03:05 (191e) 00:39:13 (114e) 00:01:20 (122e) 00:23:09 (104e) Partagez votre performance
121 119 GREGOIRE Rémi 01:20:18 M (92e) Senior (27e) 00:12:20 (132e) 00:02:22 (175e) 00:42:30 (147e) 00:01:38 (149e) 00:21:29 (69e) Partagez votre performance
128 113 DI LULLO Leo 01:21:17 M (95e) Senior (28e) 00:12:29 (138e) 00:01:49 (142e) 00:37:23 (87e) 00:01:08 (91e) 00:28:31 (172e) Partagez votre performance
129 106 TOURNEUX Benoit 01:21:22 M (96e) Master (20e) 00:14:11 (161e) 00:02:02 (151e) 00:38:12 (103e) 00:01:38 (150e) 00:25:22 (139e) Partagez votre performance
136 108 ADANT Jean 01:22:26 M (99e) Master (23e) 00:15:31 (176e) 00:03:49 (195e) 00:38:03 (100e) 00:01:58 (174e) 00:23:07 (103e) Partagez votre performance
142 40 GRARDEL Pauline 01:23:14 F (40e) Senior (9e) 00:15:22 (172e) 00:02:11 (164e) 00:42:23 (144e) 00:01:13 (108e) 00:22:07 (79e) Partagez votre performance
145 99 RITZMANN Pascal 01:24:20 M (104e) Master (27e) 00:12:40 (141e) 00:01:21 (112e) 00:41:49 (136e) 00:01:30 (136e) 00:27:02 (160e) Partagez votre performance
147 122 DEMARQUE Travis 01:24:29 M (106e) Senior (29e) 00:15:56 (180e) 00:02:14 (169e) 00:40:47 (127e) 00:01:33 (144e) 00:24:01 (120e) Partagez votre performance
148 36 PAGANO Laura 01:24:31 F (42e) Senior (10e) 00:15:24 (173e) 00:01:55 (145e) 00:41:10 (133e) 00:01:43 (157e) 00:24:22 (125e) Partagez votre performance
161 115 MICHOT Julien 01:27:25 M (116e) Senior (32e) 00:13:37 (154e) 00:02:59 (190e) 00:41:57 (137e) 00:01:37 (148e) 00:27:17 (163e) Partagez votre performance
162 95 ANDRE Christophe 01:27:32 M (117e) Master (30e) 00:14:20 (163e) 00:02:40 (183e) 00:41:04 (130e) 00:02:07 (177e) 00:27:22 (165e) Partagez votre performance
166 111 DENOYELLE Adrien 01:27:58 M (119e) Senior (33e) 00:16:18 (182e) 00:01:43 (137e) 00:41:02 (128e) 00:02:12 (181e) 00:26:44 (158e) Partagez votre performance
169 97 GUERY Jean-pierre 01:29:44 M (120e) Master (31e) 00:17:37 (187e) 00:02:10 (163e) 00:42:49 (153e) 00:02:08 (179e) 00:25:02 (132e) Partagez votre performance
172 114 HADDAD Nasser 01:31:31 M (121e) Senior (34e) 00:18:19 (193e) 00:01:43 (136e) 00:42:40 (150e) 00:01:43 (158e) 00:27:06 (161e) Partagez votre performance
173 29 MORSIAU Veronique 01:31:37 F (52e) Master (7e) 00:13:48 (160e) 00:02:18 (172e) 00:45:06 (173e) 00:02:01 (175e) 00:28:26 (171e) Partagez votre performance
174 43 FRASS Camille 01:31:56 F (53e) Senior (14e) 00:13:47 (159e) 00:02:23 (176e) 00:44:56 (172e) 00:01:54 (172e) 00:28:58 (175e) Partagez votre performance
176 28 BURIE Emmanuelle 01:32:35 F (55e) Master (9e) 00:17:40 (188e) 00:03:23 (193e) 00:43:38 (162e) 00:02:26 (188e) 00:25:30 (142e) Partagez votre performance
182 117 LECAILLE Alexandre 01:35:01 M (122e) Senior (35e) 00:17:02 (183e) 00:02:49 (186e) 00:46:28 (179e) 00:01:31 (140e) 00:27:13 (162e) Partagez votre performance
184 123 MOREL Ronan 01:35:43 M (123e) Senior (36e) 00:13:38 (155e) 00:04:39 (196e) 00:51:37 (191e) 00:01:57 (173e) 00:23:54 (118e) Partagez votre performance
191 30 T’SERVRANCX Dorothée 01:43:52 F (67e) Master (17e) 00:17:46 (190e) 00:02:58 (189e) 00:53:13 (193e) 00:01:11 (105e) 00:28:45 (174e) Partagez votre performance
192 44 FRABEL Lola 01:45:18 F (68e) Senior (17e) 00:17:20 (186e) 00:03:19 (192e) 00:51:33 (190e) 00:01:48 (167e) 00:31:20 (184e) Partagez votre performance
194 41 DEREGNAUCOURT Hélène 01:46:09 F (70e) Senior (19e) 00:20:43 (195e) 00:02:38 (179e) 00:55:09 (195e) 00:01:33 (142e) 00:26:09 (153e) Partagez votre performance
195 102 FOSSATI Bruno 00:00:00 M (125e) Master (32e) 00:17:47 (191e) 00:02:10 (162e) 00:58:05 (196e) 00:01:52 (169e) 00:00:00 (0) Partagez votre performance
196 25 LEDENT Christine 00:00:00 F (71e) Master (18e) 00:22:04 (196e) 00:03:39 (194e) 00:52:22 (192e) 00:01:48 (164e) 00:00:00 (0) Partagez votre performance


Triathlon S Full - Attente 1er pointage
Clt Athlète Nat. Club Temps Sexe Cat Swim T1 Bike T2 Run
DNS 109 VALLÉE Stéphane 00:00:00 M (0) Master (0) 00:00:00 (0) 00:00:00 (0) 00:00:00 (0) 00:00:00 (0) 00:00:00 (0)


Triathlon S Full - Non classé
Clt Athlète Nat. Club Temps Sexe Cat Swim T1 Bike T2 Run
DNS 42 ALEXANDRE Emmanuelle 00:00:00 F (0) Senior (0) 00:00:00 (0) 00:00:00 (0) 00:00:00 (0) 00:00:00 (0) 00:00:00 (0)
DNS 118 BRESSEL Maxime 00:00:00 M (0) Senior (0) 00:00:00 (0) 00:00:00 (0) 00:00:00 (0) 00:00:00 (0) 00:00:00 (0)
DNS 31 BRZEZINSKI Sonia 00:00:00 F (0) Master (0) 00:00:00 (0) 00:00:00 (0) 00:00:00 (0) 00:00:00 (0) 00:00:00 (0)
DNS 120 CARASSUS Hugo 00:00:00 M (0) Senior (0) 00:00:00 (0) 00:00:00 (0) 00:00:00 (0) 00:00:00 (0) 00:00:00 (0)
DNS 37 COMMELIN Elsa 00:00:00 F (0) Senior (0) 00:00:00 (0) 00:00:00 (0) 00:00:00 (0) 00:00:00 (0) 00:00:00 (0)
DNS 26 DECOTTIGNIES Isabelle 00:00:00 F (0) Master (0) 00:00:00 (0) 00:00:00 (0) 00:00:00 (0) 00:00:00 (0) 00:00:00 (0)
DNS 33 LEBRUN Caroline 00:00:00 F (0) Master (0) 00:00:00 (0) 00:00:00 (0) 00:00:00 (0) 00:00:00 (0) 00:00:00 (0)
DNS 113 OUKAID Mehdi 00:00:00 M (0) Junior (0) 00:00:00 (0) 00:00:00 (0) 00:00:00 (0) 00:00:00 (0) 00:00:00 (0)
DNS 103 VANDERHAEGEN Regis 00:00:00 M (0) Master (0) 00:00:00 (0) 00:00:00 (0) 00:00:00 (0) 00:00:00 (0) 00:00:00 (0)
DNS 104 VERLAINE Fabian 00:00:00 M (0) Master (0) 00:00:00 (0) 00:00:00 (0) 00:00:00 (0) 00:00:00 (0) 00:00:00 (0)
DNS 39 WILLEMS Stéphanie 00:00:00 F (0) Senior (0) 00:00:00 (0) 00:00:00 (0) 00:00:00 (0) 00:00:00 (0) 00:00:00 (0)


Triathlon S Full - Classement arrivée
Clt Athlète Nat. Club Temps Sexe Cat Swim T1 Bike T2 Run
124 46 VERHAEGHE Didier ATHLETIC CLUB MARCQUOIS 01:20:46 M (93e) Master (19e) 00:13:36 (153e) 00:02:21 (174e) 00:40:15 (123e) 00:01:30 (137e) 00:23:05 (101e) Partagez votre performance
15 57 BOURLET Mathieu BEAUVAIS TRIATHLON 01:01:17 M (15e) Senior (4e) 00:09:16 (39e) 00:00:54 (26e) 00:31:46 (9e) 00:00:59 (63e) 00:18:23 (13e) Partagez votre performance
24 51 DEWANCKELE Matthieu BEAUVAIS TRIATHLON 01:03:50 M (24e) Master (5e) 00:09:19 (41e) 00:00:54 (27e) 00:34:14 (37e) 00:00:53 (25e) 00:18:32 (15e) Partagez votre performance
29 56 SYS Pierre BEAUVAIS TRIATHLON 01:04:23 M (29e) Senior (10e) 00:09:43 (55e) 00:01:00 (50e) 00:33:40 (28e) 00:00:56 (50e) 00:19:06 (26e) Partagez votre performance
39 59 VOTTE Antoine BEAUVAIS TRIATHLON 01:06:30 M (37e) Senior (11e) 00:08:46 (26e) 00:01:20 (109e) 00:34:05 (32e) 00:00:52 (22e) 00:21:28 (68e) Partagez votre performance
57 58 BEAREE Antoine BEAUVAIS TRIATHLON 01:08:15 M (51e) Senior (14e) 00:10:31 (81e) 00:01:35 (129e) 00:35:14 (55e) 00:01:07 (86e) 00:19:50 (41e) Partagez votre performance
66 42 MINGAM Victor BEAUVAIS TRIATHLON 01:09:54 M (57e) Cadet (23e) 00:10:07 (69e) 00:01:04 (63e) 00:35:19 (56e) 00:01:09 (97e) 00:22:17 (82e) Partagez votre performance
68 48 WALLOIS Arnold BEAUVAIS TRIATHLON 01:10:29 M (58e) Master (8e) 00:11:30 (103e) 00:01:44 (140e) 00:35:37 (66e) 00:01:15 (110e) 00:20:24 (53e) Partagez votre performance
76 55 CARPENTIER Julien BEAUVAIS TRIATHLON 01:11:22 M (65e) Senior (19e) 00:11:41 (109e) 00:01:33 (128e) 00:36:28 (76e) 00:01:35 (146e) 00:20:06 (45e) Partagez votre performance
78 54 EL OUAFI Kamal BEAUVAIS TRIATHLON 01:11:43 M (66e) Master (10e)